createdAt,value
2023-03-13T00:01:36.711Z,36.20
2023-03-13T00:04:04.564Z,37.50
2023-03-13T00:06:33.704Z,38.20
2023-03-13T00:09:02.057Z,37.50
2023-03-13T00:11:29.952Z,37.80
2023-03-13T00:14:00.178Z,38.30
2023-03-13T00:16:28.587Z,39.60
2023-03-13T00:18:57.481Z,40.00
2023-03-13T00:21:26.320Z,39.40
2023-03-13T00:23:54.190Z,37.60
2023-03-13T00:26:24.025Z,37.60
2023-03-13T00:28:51.902Z,37.00
2023-03-13T00:31:22.130Z,38.30
2023-03-13T00:33:51.950Z,33.00
2023-03-13T00:36:20.531Z,36.10
2023-03-13T00:38:48.405Z,35.90
2023-03-13T00:41:18.379Z,34.70
2023-03-13T00:43:46.412Z,36.10
2023-03-13T00:46:15.137Z,34.70
2023-03-13T00:48:44.497Z,33.60
2023-03-13T00:51:12.716Z,32.80
2023-03-13T00:53:40.578Z,37.40
2023-03-13T00:56:09.362Z,39.60
2023-03-13T00:58:37.942Z,40.20
2023-03-13T01:01:09.792Z,39.00
2023-03-13T01:03:38.349Z,37.50
2023-03-13T01:06:09.156Z,37.90
2023-03-13T01:08:37.430Z,39.80
2023-03-13T01:11:06.593Z,38.30
2023-03-13T01:13:35.548Z,39.20
2023-03-13T01:16:03.903Z,40.50
2023-03-13T01:18:32.036Z,41.30
2023-03-13T01:20:59.937Z,42.70
2023-03-13T01:23:29.222Z,43.60
2023-03-13T01:25:57.518Z,41.60
2023-03-13T01:28:26.614Z,42.40
2023-03-13T01:30:54.582Z,36.20
2023-03-13T01:33:22.646Z,35.20
2023-03-13T01:35:50.605Z,37.20
2023-03-13T01:38:18.758Z,33.60
2023-03-13T01:40:49.620Z,35.10
2023-03-13T01:43:26.454Z,29.00
2023-03-13T01:46:02.287Z,29.90
2023-03-13T01:48:33.134Z,30.00
2023-03-13T01:51:01.828Z,31.60
2023-03-13T01:53:30.501Z,30.10
2023-03-13T01:56:00.988Z,31.70
2023-03-13T01:58:30.254Z,33.00
2023-03-13T02:00:58.806Z,34.00
2023-03-13T02:03:27.712Z,35.70
2023-03-13T02:05:56.460Z,36.60
2023-03-13T02:08:25.667Z,36.70
2023-03-13T02:10:55.320Z,36.20
2023-03-13T02:13:24.922Z,36.80
2023-03-13T02:15:53.544Z,35.00
2023-03-13T02:18:21.993Z,35.00
2023-03-13T02:20:52.815Z,35.40
2023-03-13T02:23:23.464Z,36.10
2023-03-13T02:25:53.632Z,35.50
2023-03-13T02:28:22.484Z,35.10
2023-03-13T02:30:51.452Z,36.00
2023-03-13T02:33:20.787Z,36.50
2023-03-13T02:35:49.578Z,36.00
2023-03-13T02:38:21.251Z,36.80
2023-03-13T02:40:50.119Z,36.40
2023-03-13T02:43:21.641Z,35.70
2023-03-13T02:46:05.768Z,36.70
2023-03-13T02:48:34.689Z,37.70
2023-03-13T02:51:04.467Z,37.60
2023-03-13T02:53:32.990Z,37.70
2023-03-13T02:56:01.020Z,37.20
2023-03-13T02:58:44.123Z,37.30
2023-03-13T03:01:17.126Z,37.90
2023-03-13T03:03:45.173Z,38.00
2023-03-13T03:06:13.116Z,36.60
2023-03-13T03:08:43.780Z,36.70
2023-03-13T03:11:11.739Z,34.90
2023-03-13T03:13:40.968Z,34.00
2023-03-13T03:16:09.414Z,34.00
2023-03-13T03:18:37.629Z,33.90
2023-03-13T03:21:06.452Z,34.00
2023-03-13T03:23:34.759Z,34.00
2023-03-13T03:26:02.750Z,33.30
2023-03-13T03:28:30.794Z,31.60
2023-03-13T03:31:04.504Z,33.40
2023-03-13T03:33:32.567Z,33.90
2023-03-13T03:36:00.831Z,33.40
2023-03-13T03:38:28.720Z,34.10
2023-03-13T03:40:56.602Z,34.50
2023-03-13T03:43:24.491Z,35.70
2023-03-13T03:45:52.556Z,35.40
2023-03-13T03:48:21.807Z,32.00
2023-03-13T03:50:49.686Z,34.40
2023-03-13T03:53:17.600Z,36.90
2023-03-13T03:55:45.575Z,38.70
2023-03-13T03:58:13.431Z,40.30
2023-03-13T04:00:44.036Z,40.50
2023-03-13T04:03:11.983Z,43.50
2023-03-13T04:05:41.745Z,40.40
2023-03-13T04:08:09.642Z,43.80
2023-03-13T04:10:37.587Z,46.10
2023-03-13T04:13:05.448Z,42.40
2023-03-13T04:15:33.308Z,42.60
2023-03-13T04:18:01.208Z,40.60
2023-03-13T04:20:29.375Z,39.50
2023-03-13T04:22:58.567Z,39.70
2023-03-13T04:25:26.454Z,42.30
2023-03-13T04:27:54.411Z,42.70
2023-03-13T04:30:22.673Z,44.80
2023-03-13T04:32:51.379Z,45.00
2023-03-13T04:35:19.328Z,48.40
2023-03-13T04:37:47.212Z,48.90
2023-03-13T04:40:16.531Z,49.00
2023-03-13T04:42:44.383Z,50.20
2023-03-13T04:45:12.994Z,53.80
2023-03-13T04:47:41.104Z,51.00
2023-03-13T04:50:09.081Z,54.90
2023-03-13T04:52:36.918Z,54.10
2023-03-13T04:55:04.992Z,54.80
2023-03-13T04:57:34.229Z,56.00
2023-03-13T05:00:02.076Z,53.80
2023-03-13T05:02:29.940Z,53.30
2023-03-13T05:04:57.877Z,58.70
2023-03-13T05:07:25.785Z,56.50
2023-03-13T05:09:53.685Z,55.00
2023-03-13T05:12:21.523Z,56.00
2023-03-13T05:14:50.760Z,59.60
2023-03-13T05:17:18.673Z,59.90
2023-03-13T05:19:46.520Z,61.10
2023-03-13T05:22:14.430Z,62.10
2023-03-13T05:24:42.413Z,65.10
2023-03-13T05:27:10.329Z,67.00
2023-03-13T05:29:38.212Z,63.10
2023-03-13T05:32:07.842Z,67.40
2023-03-13T05:34:35.749Z,65.40
2023-03-13T05:37:03.647Z,66.60
2023-03-13T05:39:31.479Z,62.50
2023-03-13T05:41:59.325Z,57.30
2023-03-13T05:44:27.176Z,56.00
2023-03-13T05:46:55.008Z,52.40
2023-03-13T05:49:24.256Z,52.70
2023-03-13T05:51:52.129Z,51.90
2023-03-13T05:54:20.004Z,51.30
2023-03-13T05:56:48.814Z,50.30
2023-03-13T05:59:16.945Z,48.10
2023-03-13T06:01:44.814Z,47.60
2023-03-13T06:04:12.963Z,45.60
2023-03-13T06:06:42.245Z,45.50
2023-03-13T06:09:11.668Z,42.10
2023-03-13T06:11:39.552Z,41.70
2023-03-13T06:14:07.413Z,39.60
2023-03-13T06:16:35.543Z,38.70
2023-03-13T06:19:03.456Z,36.80
2023-03-13T06:21:31.312Z,35.30
2023-03-13T06:24:00.526Z,34.00
2023-03-13T06:26:28.372Z,32.50
2023-03-13T06:28:56.388Z,29.60
2023-03-13T06:31:24.293Z,28.80
2023-03-13T06:33:53.910Z,29.30
2023-03-13T06:36:21.965Z,26.40
2023-03-13T06:38:49.876Z,26.20
2023-03-13T06:41:19.122Z,26.00
2023-03-13T06:43:46.982Z,26.20
2023-03-13T06:46:17.615Z,26.90
2023-03-13T06:48:46.378Z,27.10
2023-03-13T06:51:14.770Z,27.80
2023-03-13T06:53:42.788Z,26.50
2023-03-13T06:56:10.946Z,25.60
2023-03-13T06:58:40.129Z,25.80
2023-03-13T07:01:08.908Z,25.80
2023-03-13T07:03:37.260Z,25.40
2023-03-13T07:06:06.545Z,25.60
2023-03-13T07:08:34.471Z,24.70
2023-03-13T07:11:03.556Z,26.10
2023-03-13T07:13:31.437Z,23.90
2023-03-13T07:16:04.348Z,25.70
2023-03-13T07:18:32.354Z,25.00
2023-03-13T07:21:01.333Z,26.30
2023-03-13T07:23:30.631Z,28.50
2023-03-13T07:25:59.310Z,27.80
2023-03-13T07:28:27.837Z,33.70
2023-03-13T07:30:55.708Z,32.70
2023-03-13T07:33:24.920Z,32.20
2023-03-13T07:35:53.235Z,33.10
2023-03-13T07:38:21.181Z,38.90
2023-03-13T07:40:50.283Z,39.30
2023-03-13T07:43:18.567Z,50.20
2023-03-13T07:45:56.081Z,56.90
2023-03-13T07:48:26.005Z,56.50
2023-03-13T07:50:55.119Z,56.60
2023-03-13T07:53:23.310Z,69.00
2023-03-13T07:55:55.252Z,71.40
2023-03-13T07:58:23.544Z,72.60
2023-03-13T08:00:51.556Z,71.00
2023-03-13T08:03:19.735Z,74.50
2023-03-13T08:05:48.991Z,77.70
2023-03-13T08:08:16.840Z,70.90
2023-03-13T08:10:45.129Z,76.30
2023-03-13T08:13:12.961Z,81.30
2023-03-13T08:15:40.817Z,83.40
2023-03-13T08:18:08.715Z,80.90
2023-03-13T08:20:36.577Z,79.70
2023-03-13T08:23:05.780Z,79.00
2023-03-13T08:25:33.933Z,82.10
2023-03-13T08:28:02.601Z,78.30
2023-03-13T08:30:30.533Z,76.30
2023-03-13T08:32:58.473Z,74.00
2023-03-13T08:35:26.397Z,72.70
2023-03-13T08:37:54.245Z,68.50
2023-03-13T08:40:23.481Z,67.40
2023-03-13T08:42:51.325Z,67.20
2023-03-13T08:45:19.202Z,69.70
2023-03-13T08:47:47.036Z,70.90
2023-03-13T08:50:14.891Z,71.50
2023-03-13T08:52:45.004Z,75.90
2023-03-13T08:55:13.104Z,77.10
2023-03-13T08:57:42.368Z,82.80
2023-03-13T09:00:11.146Z,86.10
2023-03-13T09:02:39.060Z,87.00
2023-03-13T09:05:07.496Z,86.20
2023-03-13T09:07:35.372Z,86.10
2023-03-13T09:10:03.208Z,86.30
2023-03-13T09:12:31.739Z,86.70
2023-03-13T09:15:01.033Z,86.50
2023-03-13T09:17:28.870Z,86.30
2023-03-13T09:20:00.626Z,87.30
2023-03-13T09:22:28.969Z,86.30
2023-03-13T09:24:56.834Z,86.40
2023-03-13T09:27:24.671Z,85.70
2023-03-13T09:29:52.567Z,86.10
2023-03-13T09:32:21.805Z,86.70
2023-03-13T09:34:49.856Z,84.10
2023-03-13T09:37:17.750Z,82.10
2023-03-13T09:39:45.602Z,82.20
2023-03-13T09:42:15.832Z,82.00
2023-03-13T09:44:45.873Z,79.40
2023-03-13T09:47:17.098Z,78.00
2023-03-13T09:49:51.277Z,78.40
2023-03-13T09:52:20.561Z,79.40
2023-03-13T09:54:51.701Z,78.00
2023-03-13T09:57:23.664Z,78.90
2023-03-13T09:59:54.080Z,78.90
2023-03-13T10:02:26.292Z,78.90
2023-03-13T10:04:58.885Z,78.60
2023-03-13T10:07:26.741Z,79.00
2023-03-13T10:09:54.621Z,78.40
2023-03-13T10:12:24.712Z,78.50
2023-03-13T10:14:59.149Z,79.70
2023-03-13T10:17:32.078Z,79.90
2023-03-13T10:20:08.442Z,79.40
2023-03-13T10:22:37.512Z,80.20
2023-03-13T10:25:08.336Z,80.30
2023-03-13T10:27:44.087Z,78.80
2023-03-13T10:30:20.467Z,79.80
2023-03-13T10:32:48.416Z,80.60
2023-03-13T10:35:23.157Z,81.60
2023-03-13T10:37:51.110Z,82.30
2023-03-13T10:40:23.872Z,84.00
2023-03-13T10:42:52.517Z,84.60
2023-03-13T10:45:25.004Z,85.20
2023-03-13T10:47:55.561Z,85.70
2023-03-13T10:50:26.295Z,86.70
2023-03-13T10:52:55.028Z,88.40
2023-03-13T10:55:23.861Z,88.80
2023-03-13T10:57:57.454Z,90.20
2023-03-13T11:00:30.362Z,89.80
2023-03-13T11:02:58.410Z,84.80
2023-03-13T11:05:37.821Z,85.10
2023-03-13T11:08:12.763Z,85.50
2023-03-13T11:10:51.741Z,86.20
2023-03-13T11:13:36.602Z,89.10
2023-03-13T11:16:13.480Z,89.10
2023-03-13T11:18:44.697Z,88.60
2023-03-13T11:21:18.755Z,88.90
2023-03-13T11:23:48.589Z,89.00
2023-03-13T11:26:20.641Z,87.80
2023-03-13T11:28:51.746Z,87.80
2023-03-13T11:31:22.022Z,88.10
2023-03-13T11:33:57.511Z,87.80
2023-03-13T11:36:31.256Z,86.00
2023-03-13T11:39:03.736Z,86.20
2023-03-13T11:41:38.492Z,86.60
2023-03-13T11:44:13.859Z,85.60
2023-03-13T11:46:46.897Z,84.50
2023-03-13T11:49:22.576Z,83.10
2023-03-13T11:51:59.207Z,83.90
2023-03-13T11:54:33.261Z,82.90
2023-03-13T11:57:04.143Z,78.90
2023-03-13T11:59:37.547Z,78.40
2023-03-13T12:02:07.906Z,75.40
2023-03-13T12:04:38.021Z,76.70
2023-03-13T12:07:11.479Z,75.50
2023-03-13T12:09:43.300Z,76.60
2023-03-13T12:12:16.609Z,76.60
2023-03-13T12:14:45.554Z,76.40
2023-03-13T12:17:15.739Z,76.90
2023-03-13T12:19:48.046Z,75.60
2023-03-13T12:22:20.203Z,74.30
2023-03-13T12:24:51.261Z,74.30
2023-03-13T12:27:21.025Z,75.10
2023-03-13T12:29:52.476Z,73.60
2023-03-13T12:32:24.458Z,77.00
2023-03-13T12:34:55.378Z,73.70
2023-03-13T12:37:31.877Z,73.90
2023-03-13T12:40:02.036Z,72.20
2023-03-13T12:42:38.708Z,71.50
2023-03-13T12:45:08.070Z,73.10
2023-03-13T12:47:38.850Z,70.60
2023-03-13T12:50:16.618Z,70.70
2023-03-13T12:52:52.053Z,69.30
2023-03-13T12:55:35.510Z,70.50
2023-03-13T12:58:21.281Z,72.20
2023-03-13T13:00:50.002Z,71.10
2023-03-13T13:03:27.685Z,72.10
2023-03-13T13:06:06.865Z,72.50
2023-03-13T13:08:37.852Z,70.80
2023-03-13T13:11:29.768Z,71.80
2023-03-13T13:13:57.679Z,73.00
2023-03-13T13:16:26.715Z,72.30
2023-03-13T13:18:54.738Z,72.20
2023-03-13T13:21:26.413Z,72.60
2023-03-13T13:23:56.577Z,72.80
2023-03-13T13:26:48.686Z,72.90
2023-03-13T13:29:35.146Z,73.10
2023-03-13T13:32:04.119Z,72.00
2023-03-13T13:34:50.732Z,72.60
2023-03-13T13:37:27.374Z,73.20
2023-03-13T13:40:10.559Z,72.80
2023-03-13T13:42:43.589Z,73.10
2023-03-13T13:45:22.654Z,73.70
2023-03-13T13:47:51.614Z,74.10
2023-03-13T13:50:20.822Z,72.90
2023-03-13T13:52:49.481Z,73.30
2023-03-13T13:55:32.197Z,71.40
2023-03-13T13:58:04.257Z,71.70
2023-03-13T14:00:38.318Z,72.90
2023-03-13T14:03:17.461Z,73.40
2023-03-13T14:05:47.679Z,73.40
2023-03-13T14:08:17.891Z,74.00
2023-03-13T14:10:47.771Z,73.50
2023-03-13T14:13:17.892Z,73.00
2023-03-13T14:15:46.954Z,72.10
2023-03-13T14:18:19.824Z,72.00
2023-03-13T14:20:58.239Z,72.80
2023-03-13T14:23:42.541Z,71.40
2023-03-13T14:26:11.958Z,71.50
2023-03-13T14:28:42.380Z,71.60
2023-03-13T14:31:12.211Z,70.80
2023-03-13T14:33:40.202Z,71.30
2023-03-13T14:36:08.357Z,70.30
2023-03-13T14:38:36.302Z,70.10
2023-03-13T14:41:04.257Z,71.00
2023-03-13T14:43:34.404Z,70.90
2023-03-13T14:46:13.804Z,71.50
2023-03-13T14:48:41.910Z,71.10
2023-03-13T14:51:15.600Z,68.80
2023-03-13T14:53:54.392Z,69.00
2023-03-13T14:56:22.382Z,68.20
2023-03-13T14:58:50.231Z,67.70
2023-03-13T15:01:25.064Z,67.10
2023-03-13T15:03:53.512Z,67.30
2023-03-13T15:06:22.377Z,67.60
2023-03-13T15:08:51.615Z,65.90
2023-03-13T15:11:26.304Z,67.10
2023-03-13T15:13:54.682Z,68.00
2023-03-13T15:16:24.636Z,65.70
2023-03-13T15:18:53.184Z,66.30
2023-03-13T15:21:22.602Z,65.10
2023-03-13T15:23:52.079Z,65.30
2023-03-13T15:26:19.961Z,65.40
2023-03-13T15:28:47.852Z,65.50
2023-03-13T15:31:16.188Z,64.80
2023-03-13T15:33:45.511Z,65.40
2023-03-13T15:36:13.382Z,64.70
2023-03-13T15:38:41.332Z,64.90
2023-03-13T15:41:09.825Z,65.20
2023-03-13T15:43:38.062Z,63.40
2023-03-13T15:46:08.177Z,65.80
2023-03-13T15:48:38.092Z,64.10
2023-03-13T15:51:07.666Z,63.90
2023-03-13T15:53:36.223Z,63.70
2023-03-13T15:56:05.101Z,62.50
2023-03-13T15:58:32.975Z,62.80
2023-03-13T16:01:00.894Z,61.90
2023-03-13T16:03:29.875Z,62.10
2023-03-13T16:05:57.977Z,60.90
2023-03-13T16:08:36.434Z,62.00
2023-03-13T16:11:06.416Z,61.70
2023-03-13T16:13:34.316Z,61.50
2023-03-13T16:16:02.205Z,62.00
2023-03-13T16:18:30.176Z,61.90
2023-03-13T16:20:58.222Z,63.10
2023-03-13T16:23:27.666Z,63.20
2023-03-13T16:25:55.526Z,63.60
2023-03-13T16:28:23.401Z,64.00
2023-03-13T16:30:51.385Z,64.10
2023-03-13T16:33:19.273Z,64.30
2023-03-13T16:35:47.250Z,64.80
2023-03-13T16:38:15.132Z,64.00
2023-03-13T16:40:44.355Z,64.20
2023-03-13T16:43:12.791Z,64.10
2023-03-13T16:45:40.640Z,65.10
2023-03-13T16:48:11.606Z,64.40
2023-03-13T16:50:39.671Z,64.90
2023-03-13T16:53:07.541Z,65.40
2023-03-13T16:55:36.990Z,65.40
2023-03-13T16:58:06.326Z,65.90
2023-03-13T17:00:34.268Z,66.80
2023-03-13T17:03:02.208Z,67.20
2023-03-13T17:05:30.119Z,68.10
2023-03-13T17:07:57.976Z,68.80
2023-03-13T17:10:26.668Z,68.50
2023-03-13T17:12:54.578Z,68.40
2023-03-13T17:15:24.689Z,68.80
2023-03-13T17:17:53.066Z,69.40
2023-03-13T17:20:22.084Z,69.80
2023-03-13T17:22:49.966Z,70.60
2023-03-13T17:25:18.020Z,71.10
2023-03-13T17:27:47.445Z,71.80
2023-03-13T17:30:19.888Z,72.00
2023-03-13T17:32:50.151Z,72.60
2023-03-13T17:35:18.758Z,73.10
2023-03-13T17:37:46.848Z,73.40
2023-03-13T17:40:16.656Z,73.70
2023-03-13T17:42:44.640Z,74.40
2023-03-13T17:45:13.134Z,74.80
2023-03-13T17:47:41.387Z,75.10
2023-03-13T17:50:18.606Z,75.00
2023-03-13T17:52:46.542Z,75.60
2023-03-13T17:55:14.636Z,76.60
2023-03-13T17:57:43.736Z,78.80
2023-03-13T18:00:22.021Z,78.20
2023-03-13T18:02:50.201Z,63.60
2023-03-13T18:05:19.584Z,60.70
2023-03-13T18:07:47.605Z,60.20
2023-03-13T18:10:17.092Z,60.20
2023-03-13T18:12:45.029Z,61.30
2023-03-13T18:15:13.022Z,61.00
2023-03-13T18:17:41.277Z,61.60
2023-03-13T18:20:14.412Z,62.00
2023-03-13T18:22:44.081Z,62.30
2023-03-13T18:25:12.015Z,62.80
2023-03-13T18:27:40.203Z,63.00
2023-03-13T18:30:14.525Z,63.40
2023-03-13T18:32:42.465Z,63.10
2023-03-13T18:35:18.706Z,63.90
2023-03-13T18:37:48.564Z,63.50
2023-03-13T18:40:18.258Z,63.80
2023-03-13T18:42:46.152Z,64.20
2023-03-13T18:45:17.357Z,64.50
2023-03-13T18:47:45.613Z,64.50
2023-03-13T18:50:19.221Z,64.20
2023-03-13T18:52:48.437Z,64.60
2023-03-13T18:55:16.472Z,64.20
2023-03-13T18:57:44.411Z,64.30
2023-03-13T19:00:23.128Z,64.80
2023-03-13T19:02:51.152Z,64.90
2023-03-13T19:05:19.482Z,65.40
2023-03-13T19:07:48.707Z,65.00
2023-03-13T19:10:18.912Z,65.10
2023-03-13T19:12:46.885Z,65.10
2023-03-13T19:15:15.663Z,65.20
2023-03-13T19:17:43.906Z,65.40
2023-03-13T19:20:15.669Z,65.80
2023-03-13T19:22:43.533Z,65.70
2023-03-13T19:25:14.038Z,66.00
2023-03-13T19:27:42.304Z,65.80
2023-03-13T19:30:17.794Z,65.50
2023-03-13T19:32:45.715Z,66.80
2023-03-13T19:35:13.780Z,66.80
2023-03-13T19:37:41.642Z,66.00
2023-03-13T19:40:15.170Z,66.00
2023-03-13T19:42:43.021Z,66.20
2023-03-13T19:45:11.542Z,66.10
2023-03-13T19:47:39.457Z,66.30
2023-03-13T19:50:07.888Z,66.40
2023-03-13T19:52:35.704Z,67.20
2023-03-13T19:55:05.126Z,67.10
2023-03-13T19:57:34.567Z,66.70
2023-03-13T20:00:03.400Z,66.80
2023-03-13T20:02:31.337Z,66.10
2023-03-13T20:04:59.212Z,65.50
2023-03-13T20:07:27.094Z,63.10
2023-03-13T20:09:55.006Z,63.10
2023-03-13T20:12:22.886Z,63.10
2023-03-13T20:14:52.107Z,62.80
2023-03-13T20:17:19.978Z,64.10
2023-03-13T20:19:47.840Z,63.60
2023-03-13T20:22:16.040Z,63.60
2023-03-13T20:24:43.931Z,63.70
2023-03-13T20:27:11.782Z,64.00
2023-03-13T20:29:41.301Z,63.80
2023-03-13T20:32:11.391Z,64.40
2023-03-13T20:34:39.261Z,64.50
2023-03-13T20:37:07.139Z,64.70
2023-03-13T20:39:35.883Z,64.70
2023-03-13T20:42:03.901Z,64.80
2023-03-13T20:44:31.784Z,64.40
2023-03-13T20:46:59.663Z,64.30
2023-03-13T20:49:28.907Z,64.60
2023-03-13T20:51:56.821Z,63.70
2023-03-13T20:54:24.670Z,64.20
2023-03-13T20:56:52.508Z,64.70
2023-03-13T20:59:20.570Z,64.50
2023-03-13T21:01:48.465Z,64.20
2023-03-13T21:04:16.450Z,63.80
2023-03-13T21:06:45.658Z,59.20
2023-03-13T21:09:14.048Z,57.90
2023-03-13T21:11:41.908Z,56.70
2023-03-13T21:14:09.752Z,56.70
2023-03-13T21:16:37.682Z,56.30
2023-03-13T21:19:05.579Z,56.90
2023-03-13T21:21:33.435Z,57.80
2023-03-13T21:24:02.748Z,58.00
2023-03-13T21:26:31.284Z,57.60
2023-03-13T21:28:59.196Z,58.10
2023-03-13T21:31:27.349Z,58.00
2023-03-13T21:33:55.295Z,57.70
2023-03-13T21:36:23.409Z,57.80
2023-03-13T21:38:51.434Z,58.40
2023-03-13T21:41:22.139Z,58.00
2023-03-13T21:43:49.996Z,58.50
2023-03-13T21:46:19.858Z,57.70
2023-03-13T21:48:47.770Z,58.40
2023-03-13T21:51:15.688Z,58.70
2023-03-13T21:53:44.476Z,58.10
2023-03-13T21:56:15.415Z,59.00
2023-03-13T21:58:45.275Z,58.50
2023-03-13T22:01:13.489Z,58.60
2023-03-13T22:03:41.463Z,58.40
2023-03-13T22:06:12.586Z,58.60
2023-03-13T22:08:41.279Z,58.30
2023-03-13T22:11:09.467Z,58.90
2023-03-13T22:13:37.436Z,59.20
2023-03-13T22:16:07.468Z,59.10
2023-03-13T22:18:35.362Z,59.40
2023-03-13T22:21:03.199Z,59.20
2023-03-13T22:23:31.021Z,59.40
2023-03-13T22:25:59.521Z,59.00
2023-03-13T22:28:27.499Z,59.20
2023-03-13T22:30:55.394Z,58.70
2023-03-13T22:33:24.647Z,59.90
2023-03-13T22:35:53.140Z,59.40
2023-03-13T22:38:21.288Z,59.30
2023-03-13T22:40:49.520Z,59.20
2023-03-13T22:43:17.383Z,60.40
2023-03-13T22:45:48.160Z,59.70
2023-03-13T22:48:15.996Z,59.40
2023-03-13T22:50:45.206Z,59.20
2023-03-13T22:53:13.180Z,59.60
2023-03-13T22:55:41.021Z,59.40
2023-03-13T22:58:08.946Z,59.70
2023-03-13T23:00:36.895Z,59.70
2023-03-13T23:03:04.778Z,59.60
2023-03-13T23:05:32.636Z,59.50
2023-03-13T23:08:01.914Z,59.90
2023-03-13T23:10:29.770Z,59.70
2023-03-13T23:12:57.647Z,59.60
2023-03-13T23:15:26.547Z,59.80
2023-03-13T23:17:57.496Z,60.20
2023-03-13T23:20:25.337Z,59.70
2023-03-13T23:22:53.370Z,59.90
2023-03-13T23:25:23.072Z,60.00
2023-03-13T23:27:51.293Z,59.60
2023-03-13T23:30:19.892Z,59.80
2023-03-13T23:32:48.329Z,59.80
2023-03-13T23:35:16.880Z,59.60
2023-03-13T23:37:47.687Z,60.10
2023-03-13T23:40:16.176Z,59.60
2023-03-13T23:42:46.638Z,59.80
2023-03-13T23:45:14.696Z,59.90
2023-03-13T23:47:44.008Z,60.20
2023-03-13T23:50:12.404Z,61.10
2023-03-13T23:52:40.551Z,61.70
2023-03-13T23:55:08.855Z,61.80
2023-03-13T23:57:38.371Z,61.70
